Time;durP1;ratioP1;P1;durP2;ratioP2;P2;SDS_P1;SDS_P2;PMS_P1;PMS_P2;Temp;Humidity;BMP_temperature;BMP_pressure;BME280_temperature;BME280_humidity;BME280_pressure;Samples;Min_cycle;Max_cycle;Signal;HPM_P1;HPM_P2
2022/01/12 00:02:30;;;;;;;369.23;117.77;;;-5.70;99.90;;;;;;2603637;54;20105;31
2022/01/12 00:05:05;;;;;;;468.10;125.65;;;-5.70;99.90;;;;;;2603669;54;20031;31
2022/01/12 00:07:40;;;;;;;517.30;126.22;;;-5.70;99.90;;;;;;2603137;54;20093;31
2022/01/12 00:10:16;;;;;;;331.90;106.75;;;-5.70;99.90;;;;;;2603468;54;19934;31
2022/01/12 00:12:53;;;;;;;383.05;113.40;;;-5.80;99.90;;;;;;2621908;46;20780;31
2022/01/12 00:15:33;;;;;;;236.10;93.50;;;-5.80;99.90;;;;;;2603367;54;20129;31
2022/01/12 00:18:11;;;;;;;297.80;108.13;;;-5.80;99.90;;;;;;2603316;54;20022;31
2022/01/12 00:20:47;;;;;;;321.25;105.75;;;-5.80;99.90;;;;;;2603444;54;20027;31
2022/01/12 00:23:25;;;;;;;294.50;107.65;;;-5.80;99.90;;;;;;2603579;54;20029;31
2022/01/12 00:26:05;;;;;;;261.77;98.93;;;-5.80;99.90;;;;;;2603422;54;20132;31
2022/01/12 00:34:34;;;;;;;442.33;105.45;;;-5.80;99.90;;;;;;2603177;54;20030;31
2022/01/12 00:37:10;;;;;;;522.55;110.07;;;-5.80;99.90;;;;;;2603492;54;20104;31
2022/01/12 00:39:48;;;;;;;345.20;102.90;;;-5.80;99.90;;;;;;2622103;46;20089;31
2022/01/12 00:44:54;;;;;;;308.70;102.75;;;-5.90;99.90;;;;;;2603648;54;20069;31
2022/01/12 00:47:32;;;;;;;279.63;97.68;;;-5.90;99.90;;;;;;2714665;39;21023;31
2022/01/12 00:50:11;;;;;;;312.05;101.13;;;-5.90;99.90;;;;;;2602565;54;20030;31
2022/01/12 00:52:48;;;;;;;269.70;96.27;;;-5.90;99.90;;;;;;2622002;46;20728;31
2022/01/12 00:55:21;;;;;;;352.65;99.45;;;-6.00;99.90;;;;;;2603561;54;20059;31
2022/01/12 00:57:58;;;;;;;345.30;98.68;;;-6.00;99.90;;;;;;2603500;54;20031;31
2022/01/12 01:00:35;;;;;;;336.88;99.38;;;-6.00;99.90;;;;;;2603377;54;20030;31
2022/01/12 01:03:11;;;;;;;322.10;100.90;;;-6.00;99.90;;;;;;2621783;46;20128;31
2022/01/12 01:05:48;;;;;;;330.83;100.60;;;-6.10;99.90;;;;;;2603545;54;20033;31
2022/01/12 01:08:24;;;;;;;308.23;96.30;;;-6.10;99.90;;;;;;2603521;54;20835;31
2022/01/12 01:11:00;;;;;;;270.63;93.18;;;-6.10;99.90;;;;;;2603249;54;20030;31
2022/01/12 01:13:44;;;;;;;;;;;-6.10;99.90;;;;;;2622126;46;20751;31
2022/01/12 01:16:24;;;;;;;294.25;88.95;;;-6.10;99.90;;;;;;2621796;46;19950;31
2022/01/12 01:27:24;;;;;;;264.08;91.35;;;-6.10;99.90;;;;;;2621992;47;20835;31
2022/01/12 01:30:05;;;;;;;390.10;98.10;;;-6.10;99.90;;;;;;2603200;54;20027;31
2022/01/12 01:32:38;;;;;;;307.40;91.05;;;-6.10;99.90;;;;;;2700943;39;22384;31
2022/01/12 01:35:14;;;;;;;412.93;102.77;;;-6.10;99.90;;;;;;2603229;54;20843;31
2022/01/12 01:37:51;;;;;;;287.27;96.18;;;-6.10;99.90;;;;;;2603060;54;21122;31
2022/01/12 01:40:30;;;;;;;299.25;96.85;;;-6.10;99.90;;;;;;2603292;54;20140;31
2022/01/12 01:53:47;;;;;;;345.80;95.57;;;-6.10;99.90;;;;;;2603086;54;20093;31
2022/01/12 01:56:25;;;;;;;304.27;87.90;;;-6.20;99.90;;;;;;2621567;47;20057;31
2022/01/12 01:59:01;;;;;;;237.00;84.10;;;-6.20;99.90;;;;;;2602773;54;20884;31
2022/01/12 02:01:37;;;;;;;372.38;90.03;;;-6.20;99.90;;;;;;2603345;54;20022;31
2022/01/12 02:04:12;;;;;;;293.10;89.00;;;-6.20;99.90;;;;;;2621491;47;20053;31
2022/01/12 02:06:48;;;;;;;303.55;85.90;;;-6.20;99.90;;;;;;2621504;47;20077;31
2022/01/12 02:09:24;;;;;;;466.10;99.65;;;-6.10;99.90;;;;;;2603167;54;20042;31
2022/01/12 02:12:30;;;;;;;208.98;83.10;;;-6.10;99.90;;;;;;2602592;54;20085;31
2022/01/12 02:15:03;;;;;;;222.77;80.05;;;-6.10;99.90;;;;;;2603144;54;20027;31
2022/01/12 02:17:52;;;;;;;198.43;79.88;;;-6.10;99.90;;;;;;2621339;47;20904;31
2022/01/12 02:35:12;;;;;;;231.30;79.03;;;-6.10;99.90;;;;;;2621692;47;20031;31
2022/01/12 02:39:45;;;;;;;277.73;81.88;;;-6.20;99.90;;;;;;2621362;47;22061;31
2022/01/12 02:40:13;;;;;;;318.37;82.53;;;-6.20;99.90;;;;;;2603703;54;20030;31
2022/01/12 02:42:56;;;;;;;349.55;91.88;;;-6.20;99.90;;;;;;2617232;46;20037;31
2022/01/12 02:50:56;;;;;;;336.80;94.90;;;-6.20;99.90;;;;;;2603740;54;20034;31
2022/01/12 02:53:39;;;;;;;250.18;83.13;;;-6.20;99.90;;;;;;2622080;46;20052;31
2022/01/12 02:56:18;;;;;;;237.27;84.72;;;-6.20;99.90;;;;;;2603819;54;20754;31
2022/01/12 02:58:55;;;;;;;339.83;92.18;;;-6.20;99.90;;;;;;2603552;54;20053;31
2022/01/12 03:04:18;;;;;;;326.52;93.78;;;-6.20;99.90;;;;;;2603487;54;19942;31
2022/01/12 03:07:04;;;;;;;282.93;87.10;;;-6.20;99.90;;;;;;2603804;54;20084;31
2022/01/12 03:09:40;;;;;;;503.33;101.80;;;-6.20;99.90;;;;;;2720420;39;20395;31
2022/01/12 03:12:21;;;;;;;349.35;93.30;;;-6.20;99.90;;;;;;2603646;54;20026;31
2022/01/12 03:14:57;;;;;;;229.02;83.88;;;-6.20;99.90;;;;;;2603723;54;20155;31
2022/01/12 03:17:34;;;;;;;179.23;70.88;;;-6.20;99.90;;;;;;2622018;46;20092;31
2022/01/12 03:20:13;;;;;;;353.17;88.47;;;-6.10;99.90;;;;;;2702459;39;21032;31
2022/01/12 03:22:47;;;;;;;283.58;87.43;;;-6.20;99.90;;;;;;2622535;46;20037;31
2022/01/12 03:25:24;;;;;;;260.92;82.13;;;-6.20;99.90;;;;;;2603594;54;20026;31
2022/01/12 03:28:04;;;;;;;236.98;82.55;;;-6.20;99.90;;;;;;2603891;54;20042;31
2022/01/12 03:30:47;;;;;;;235.55;86.00;;;-6.10;99.90;;;;;;2603784;54;20045;31
2022/01/12 03:33:35;;;;;;;242.50;79.03;;;-6.10;99.90;;;;;;2603603;54;20104;31
2022/01/12 04:08:34;;;;;;;228.05;86.15;;;-6.10;99.90;;;;;;2773960;31;22452;31
2022/01/12 04:11:10;;;;;;;269.02;87.95;;;-6.00;99.90;;;;;;2603487;54;20072;31
2022/01/12 04:13:47;;;;;;;274.33;88.55;;;-6.00;99.90;;;;;;2603437;54;20030;31
2022/01/12 04:16:22;;;;;;;224.57;81.45;;;-6.00;99.90;;;;;;2603672;54;20038;31
2022/01/12 04:19:01;;;;;;;241.90;87.65;;;-6.10;99.90;;;;;;2602805;54;20390;31
2022/01/12 04:21:42;;;;;;;390.08;97.40;;;-6.10;99.90;;;;;;2602591;54;20353;31
2022/01/12 04:24:23;;;;;;;274.48;93.40;;;-6.10;99.90;;;;;;2603474;54;20031;31
2022/01/12 04:26:58;;;;;;;283.45;93.15;;;-6.10;99.90;;;;;;2603381;54;20027;31
2022/01/12 04:29:31;;;;;;;296.17;97.87;;;-6.10;99.90;;;;;;2603319;54;20026;31
2022/01/12 04:32:07;;;;;;;272.95;98.15;;;-6.10;99.90;;;;;;2621833;46;20038;31
2022/01/12 04:34:42;;;;;;;296.52;91.88;;;-6.10;99.90;;;;;;2603605;54;20108;31
2022/01/12 04:37:16;;;;;;;245.70;88.53;;;-6.10;99.90;;;;;;2621501;46;20987;31
2022/01/12 04:39:55;;;;;;;195.02;66.05;;;-6.10;99.90;;;;;;2603311;54;20837;31
2022/01/12 04:42:30;;;;;;;214.65;82.43;;;-6.20;99.90;;;;;;2603413;54;20122;31
2022/01/12 04:45:16;;;;;;;231.80;86.97;;;-6.10;99.90;;;;;;2603374;54;19934;31
2022/01/12 04:48:09;;;;;;;264.08;88.30;;;-6.10;99.90;;;;;;2603323;54;20035;31
2022/01/12 04:50:43;;;;;;;433.75;97.75;;;-6.20;99.90;;;;;;2603375;54;20022;31
2022/01/12 04:53:19;;;;;;;177.85;62.90;;;-6.20;99.90;;;;;;2603590;54;20026;31
2022/01/12 04:55:58;;;;;;;287.95;91.05;;;-6.20;99.90;;;;;;2603226;54;20031;31
2022/01/12 04:58:34;;;;;;;265.50;89.43;;;-6.20;99.90;;;;;;2603219;54;19934;31
2022/01/12 05:01:13;;;;;;;370.70;95.50;;;-6.20;99.90;;;;;;2603128;54;20819;31
2022/01/12 05:06:49;;;;;;;332.75;90.07;;;-6.30;99.90;;;;;;2603283;54;20068;31
2022/01/12 05:15:12;;;;;;;248.35;84.53;;;-6.40;99.90;;;;;;2603538;54;20108;31
2022/01/12 05:17:48;;;;;;;266.70;82.90;;;-6.40;99.90;;;;;;2621664;46;20828;31
2022/01/12 05:20:23;;;;;;;254.02;83.50;;;-6.40;99.90;;;;;;2603216;54;20056;31
2022/01/12 05:23:00;;;;;;;208.60;83.57;;;-6.40;99.90;;;;;;2603351;54;20928;31
2022/01/12 05:25:36;;;;;;;230.88;87.10;;;-6.30;99.90;;;;;;2621911;46;20026;31
2022/01/12 05:28:13;;;;;;;553.25;114.53;;;-6.30;99.90;;;;;;2621643;46;20069;31
2022/01/12 05:30:48;;;;;;;338.05;89.60;;;-6.30;99.90;;;;;;2603178;54;20053;31
2022/01/12 05:33:26;;;;;;;385.90;91.35;;;-6.30;99.90;;;;;;2602561;54;20864;31
2022/01/12 05:36:06;;;;;;;431.40;100.63;;;-6.40;99.90;;;;;;2621821;46;20104;31
2022/01/12 05:38:41;;;;;;;327.73;86.47;;;-6.30;99.90;;;;;;2603098;54;20018;31
2022/01/12 05:41:22;;;;;;;253.80;90.63;;;-6.40;99.90;;;;;;2603107;54;20826;31
2022/01/12 05:44:05;;;;;;;322.73;89.80;;;-6.30;99.90;;;;;;2603343;54;21084;31
2022/01/12 05:46:42;;;;;;;284.92;81.25;;;-6.30;99.90;;;;;;2603115;54;19934;31
2022/01/12 05:49:35;;;;;;;204.35;82.95;;;-6.40;99.90;;;;;;2621471;46;20033;31
2022/01/12 05:52:14;;;;;;;265.25;83.03;;;-6.30;99.90;;;;;;2603235;54;20022;31
2022/01/12 05:54:50;;;;;;;234.32;83.68;;;-6.30;99.90;;;;;;2602944;54;20038;31
2022/01/12 05:57:25;;;;;;;209.55;81.90;;;-6.30;99.90;;;;;;2621387;47;20026;31
2022/01/12 06:00:03;;;;;;;227.43;85.30;;;-6.30;99.90;;;;;;2621240;47;20881;31
2022/01/12 06:02:48;;;;;;;217.73;84.82;;;-6.30;99.90;;;;;;2603362;54;20250;31
2022/01/12 06:05:25;;;;;;;228.82;91.82;;;-6.30;99.90;;;;;;2603210;54;19957;31
2022/01/12 06:08:00;;;;;;;252.07;99.00;;;-6.30;99.90;;;;;;2621487;47;20030;31
2022/01/12 06:10:38;;;;;;;230.95;93.35;;;-6.30;99.90;;;;;;2603287;54;20141;31
2022/01/12 06:13:17;;;;;;;241.90;96.33;;;-6.30;99.90;;;;;;2603747;54;20037;31
2022/01/12 06:15:56;;;;;;;285.23;120.30;;;-6.30;99.90;;;;;;2603818;54;20756;31
2022/01/12 06:18:33;;;;;;;211.10;86.50;;;-6.30;99.90;;;;;;2603831;54;20268;31
2022/01/12 06:21:09;;;;;;;303.17;92.70;;;-6.30;99.90;;;;;;2603703;54;20027;31
2022/01/12 06:24:03;;;;;;;343.02;113.82;;;-6.30;99.90;;;;;;2603733;54;20885;31
2022/01/12 06:26:38;;;;;;;304.40;89.50;;;-6.40;99.90;;;;;;2604020;54;20089;31
2022/01/12 06:29:25;;;;;;;245.95;87.22;;;-6.30;99.90;;;;;;2603831;54;20285;31
2022/01/12 06:32:05;;;;;;;284.65;117.35;;;-6.30;99.90;;;;;;2603737;54;20034;31
2022/01/12 06:34:41;;;;;;;292.17;91.03;;;-6.40;99.90;;;;;;2622195;46;20031;31
2022/01/12 06:37:16;;;;;;;331.40;99.68;;;-6.40;99.90;;;;;;2603748;54;20914;31
2022/01/12 06:39:55;;;;;;;243.35;81.03;;;-6.40;99.90;;;;;;2603640;54;20048;31
2022/01/12 06:42:34;;;;;;;307.10;83.13;;;-6.40;99.90;;;;;;2603737;54;20042;31
2022/01/12 06:45:17;;;;;;;243.60;88.43;;;-6.40;99.90;;;;;;2603665;54;20099;31
2022/01/12 06:47:59;;;;;;;253.83;84.70;;;-6.40;99.90;;;;;;2603769;54;20027;31
2022/01/12 06:50:34;;;;;;;224.02;83.22;;;-6.50;99.90;;;;;;2622495;46;20042;31
2022/01/12 06:53:10;;;;;;;209.50;83.43;;;-6.40;99.90;;;;;;2603837;54;20032;31
2022/01/12 06:55:46;;;;;;;253.03;95.73;;;-6.50;99.90;;;;;;2603661;54;20767;31
2022/01/12 06:58:23;;;;;;;210.75;88.95;;;-6.50;99.90;;;;;;2603681;54;20022;31
2022/01/12 07:00:59;;;;;;;249.05;100.25;;;-6.50;99.90;;;;;;2602871;54;20042;31
2022/01/12 07:03:43;;;;;;;198.40;78.63;;;-6.50;99.90;;;;;;2603791;54;20050;31
2022/01/12 07:06:23;;;;;;;201.98;77.45;;;-6.50;99.90;;;;;;2603871;54;20165;31
2022/01/12 07:08:58;;;;;;;212.20;80.35;;;-6.50;99.90;;;;;;2622324;46;20080;31
2022/01/12 07:11:55;;;;;;;196.45;78.55;;;-6.50;99.90;;;;;;2603604;54;20816;31
2022/01/12 07:14:36;;;;;;;188.30;75.33;;;-6.50;99.90;;;;;;2603704;54;20030;31
2022/01/12 07:19:50;;;;;;;203.30;76.20;;;-6.60;99.90;;;;;;2622479;46;20955;31
2022/01/12 07:22:29;;;;;;;210.40;78.43;;;-6.50;99.90;;;;;;2603407;54;20022;31
2022/01/12 07:25:09;;;;;;;193.00;77.05;;;-6.60;99.90;;;;;;2603438;54;20865;31
2022/01/12 07:27:47;;;;;;;207.63;80.30;;;-6.60;99.90;;;;;;2603803;54;20063;31
2022/01/12 07:30:24;;;;;;;233.55;83.75;;;-6.60;99.90;;;;;;2603636;54;20039;31
2022/01/12 07:33:03;;;;;;;209.63;86.07;;;-6.60;99.90;;;;;;2603731;54;20732;31
2022/01/12 07:35:41;;;;;;;199.23;83.90;;;-6.70;99.90;;;;;;2603482;54;20243;31
2022/01/12 07:38:20;;;;;;;221.65;83.32;;;-6.70;99.90;;;;;;2603612;54;20029;31
2022/01/12 07:40:53;;;;;;;220.27;89.20;;;-6.60;99.90;;;;;;2603486;54;20026;31
2022/01/12 07:43:36;;;;;;;204.15;81.30;;;-6.60;99.90;;;;;;2603583;54;20855;31
2022/01/12 07:46:15;;;;;;;187.57;75.82;;;-6.40;99.90;;;;;;2603725;54;20033;31
2022/01/12 07:48:53;;;;;;;181.10;81.43;;;-6.40;99.90;;;;;;2603535;54;20100;31
2022/01/12 07:51:34;;;;;;;205.65;87.80;;;-6.30;99.90;;;;;;2622069;46;20108;31
2022/01/12 07:54:09;;;;;;;183.30;80.00;;;-6.30;99.90;;;;;;2603524;54;20172;31
2022/01/12 07:56:47;;;;;;;205.55;79.80;;;-6.20;99.90;;;;;;2603499;54;20085;31
2022/01/12 07:59:23;;;;;;;194.07;78.90;;;-6.10;99.90;;;;;;2602827;54;20837;31
2022/01/12 08:01:58;;;;;;;196.30;87.88;;;-6.00;99.90;;;;;;2603551;54;20246;31
2022/01/12 08:04:34;;;;;;;184.60;76.75;;;-5.70;99.90;;;;;;2603769;54;20038;31
2022/01/12 08:07:17;;;;;;;186.70;77.72;;;-5.40;99.90;;;;;;2603556;54;20030;31
2022/01/12 08:09:55;;;;;;;168.10;72.07;;;-4.90;99.90;;;;;;2603507;54;20648;31
2022/01/12 08:15:11;;;;;;;173.68;74.95;;;-4.00;99.90;;;;;;2603580;54;20030;31
2022/01/12 08:17:46;;;;;;;166.45;73.35;;;-3.70;99.90;;;;;;2603509;54;20049;31
2022/01/12 08:20:25;;;;;;;175.63;76.25;;;-3.60;99.90;;;;;;2603295;54;20867;31
2022/01/12 08:23:04;;;;;;;191.57;82.18;;;-3.70;99.90;;;;;;2603394;54;20936;31
2022/01/12 08:25:40;;;;;;;178.25;75.80;;;-3.90;99.90;;;;;;2603533;54;20904;31
2022/01/12 08:28:15;;;;;;;177.15;80.45;;;-4.00;99.90;;;;;;2603329;54;20136;31
2022/01/12 08:30:51;;;;;;;188.97;84.73;;;-4.00;99.90;;;;;;2603671;54;20889;31
2022/01/12 08:33:29;;;;;;;191.47;80.90;;;-4.20;99.90;;;;;;2621623;46;20857;31
2022/01/12 08:36:17;;;;;;;174.70;78.10;;;-4.20;99.90;;;;;;2607881;46;20261;31
2022/01/12 08:39:28;;;;;;;173.05;78.35;;;-4.30;99.90;;;;;;2603173;54;20029;31
2022/01/12 08:42:12;;;;;;;182.05;78.82;;;-4.30;99.90;;;;;;2603284;54;20866;31
2022/01/12 08:45:06;;;;;;;183.03;79.40;;;-4.30;99.90;;;;;;2603224;54;20752;31
2022/01/12 08:47:44;;;;;;;181.57;77.68;;;-4.30;99.90;;;;;;2603243;54;20927;31
2022/01/12 08:50:22;;;;;;;168.02;76.85;;;-4.30;99.90;;;;;;2603463;54;20648;31
2022/01/12 08:52:57;;;;;;;174.73;78.60;;;-4.30;99.90;;;;;;2621728;46;20878;31
2022/01/12 08:55:35;;;;;;;171.70;75.55;;;-4.30;99.90;;;;;;2621726;46;20064;31
2022/01/12 08:58:12;;;;;;;193.38;84.88;;;-4.20;99.90;;;;;;2621342;46;20801;31
2022/01/12 09:00:50;;;;;;;188.27;87.95;;;-4.10;99.90;;;;;;2621515;46;20871;31
2022/01/12 09:03:25;;;;;;;177.23;81.20;;;-4.00;99.90;;;;;;2603308;54;20585;31
2022/01/12 09:06:08;;;;;;;179.63;80.70;;;-3.90;99.90;;;;;;2603294;54;20351;31
2022/01/12 09:08:44;;;;;;;180.77;82.47;;;-3.90;99.90;;;;;;2603358;54;20027;31
2022/01/12 09:11:27;;;;;;;187.77;83.05;;;-3.90;99.90;;;;;;2603320;54;20046;31
2022/01/12 09:14:01;;;;;;;195.20;88.40;;;-3.90;99.90;;;;;;2621660;46;20859;31
2022/01/12 09:16:38;;;;;;;176.20;86.73;;;-3.90;99.90;;;;;;2603304;54;20822;31
2022/01/12 09:19:17;;;;;;;177.25;84.32;;;-3.90;99.90;;;;;;2603282;54;21221;31
2022/01/12 09:21:56;;;;;;;169.23;79.57;;;-3.80;99.90;;;;;;2603097;54;20660;31
2022/01/12 09:24:31;;;;;;;191.20;85.00;;;-3.80;99.90;;;;;;2621556;46;20104;31
2022/01/12 09:27:19;;;;;;;179.50;85.30;;;-3.70;99.90;;;;;;2603478;54;20856;31
2022/01/12 09:29:52;;;;;;;193.32;86.38;;;-3.70;99.90;;;;;;2701304;39;20517;31
2022/01/12 09:32:36;;;;;;;180.55;84.45;;;-3.70;99.90;;;;;;2603333;54;20916;31
2022/01/12 09:35:22;;;;;;;170.57;83.22;;;-3.60;99.90;;;;;;2602832;54;20035;31
2022/01/12 09:38:00;;;;;;;174.82;82.82;;;-3.60;99.90;;;;;;2621768;46;20038;31
2022/01/12 09:40:43;;;;;;;170.80;78.30;;;-3.60;99.90;;;;;;2621269;46;20026;31
2022/01/12 09:43:28;;;;;;;171.48;82.28;;;-3.50;99.90;;;;;;2772856;31;20620;31
2022/01/12 09:46:03;;;;;;;173.95;77.55;;;-3.40;99.90;;;;;;2602802;54;20141;31
2022/01/12 09:48:39;;;;;;;170.23;78.33;;;-3.30;99.90;;;;;;2621366;46;20026;31
2022/01/12 09:51:15;;;;;;;176.35;79.05;;;-3.30;99.90;;;;;;2621644;46;20026;31
2022/01/12 09:53:51;;;;;;;174.38;78.93;;;-3.30;99.90;;;;;;2603091;54;20027;31
2022/01/12 09:56:24;;;;;;;;;;;-3.20;99.90;;;;;;2603417;54;20081;31
2022/01/12 09:59:11;;;;;;;181.88;81.38;;;-3.20;99.90;;;;;;2603240;54;21440;31
2022/01/12 10:01:51;;;;;;;179.80;83.35;;;-3.20;99.90;;;;;;2602935;54;19946;31
2022/01/12 10:04:36;;;;;;;202.90;97.90;;;-3.20;99.90;;;;;;2603020;54;20867;31
2022/01/12 10:07:13;;;;;;;192.68;92.18;;;-3.20;99.90;;;;;;2621183;47;20027;31
2022/01/12 10:09:53;;;;;;;165.82;79.85;;;-3.10;99.90;;;;;;2621466;47;20054;31
2022/01/12 10:12:52;;;;;;;172.90;81.18;;;-3.00;99.90;;;;;;2602956;54;20049;31
2022/01/12 10:18:09;;;;;;;161.47;80.90;;;-2.90;99.90;;;;;;2602980;54;20056;31
2022/01/12 10:20:46;;;;;;;175.23;86.72;;;-2.80;99.90;;;;;;2621223;47;20095;31
2022/01/12 10:23:24;;;;;;;176.97;85.00;;;-2.80;99.90;;;;;;2603137;54;20029;31
2022/01/12 10:26:00;;;;;;;167.15;78.70;;;-2.70;99.90;;;;;;2602207;54;20093;31
2022/01/12 10:28:37;;;;;;;191.25;88.30;;;-2.60;99.90;;;;;;2603056;54;20030;31
2022/01/12 10:31:18;;;;;;;187.52;87.15;;;-2.50;99.90;;;;;;2621340;47;20038;31
2022/01/12 10:33:52;;;;;;;189.55;88.07;;;-2.40;99.90;;;;;;2602903;54;20032;31
2022/01/12 10:36:38;;;;;;;176.20;85.55;;;-2.20;99.90;;;;;;2602926;54;20108;31
2022/01/12 10:39:17;;;;;;;178.30;83.43;;;-1.90;99.90;;;;;;2602976;54;20785;31
2022/01/12 10:44:52;;;;;;;130.50;64.25;;;-1.50;99.90;;;;;;2602536;54;20031;31
2022/01/12 10:47:29;;;;;;;124.83;59.40;;;-1.30;99.90;;;;;;2602807;54;20026;31
2022/01/12 10:50:04;;;;;;;115.05;57.40;;;-1.20;99.90;;;;;;2602808;54;20897;31
2022/01/12 10:55:17;;;;;;;101.50;51.80;;;-1.00;99.90;;;;;;2602811;54;20958;31
2022/01/12 10:57:58;;;;;;;103.10;48.40;;;-0.80;99.90;;;;;;2603121;54;21205;31
2022/01/12 11:00:37;;;;;;;93.60;47.60;;;-0.60;99.90;;;;;;2603740;54;20030;31
2022/01/12 11:03:14;;;;;;;90.22;46.55;;;-0.50;99.90;;;;;;2622060;46;20032;31
2022/01/12 11:05:53;;;;;;;83.13;42.03;;;-0.40;99.90;;;;;;2702262;39;22349;31
2022/01/12 11:08:50;;;;;;;70.32;38.35;;;-0.30;99.90;;;;;;2603639;54;20182;31
2022/01/12 11:17:07;;;;;;;70.63;32.70;;;-0.30;99.90;;;;;;2603446;54;20069;31
2022/01/12 11:20:01;;;;;;;58.00;30.83;;;-0.40;99.90;;;;;;2603600;54;20936;31
2022/01/12 11:32:32;;;;;;;51.65;27.95;;;-0.20;99.90;;;;;;2603680;54;20045;31
2022/01/12 11:35:39;;;;;;;58.25;28.45;;;-0.20;99.90;;;;;;2603718;54;20038;31
2022/01/12 11:39:18;;;;;;;54.88;27.80;;;-0.20;99.90;;;;;;2603599;54;20781;31
2022/01/12 11:45:46;;;;;;;52.55;25.65;;;-0.10;99.90;;;;;;2603293;54;20786;31
2022/01/12 11:51:35;;;;;;;54.23;26.90;;;-0.20;99.90;;;;;;2603481;54;20022;31
2022/01/12 11:57:41;;;;;;;53.35;26.02;;;-0.20;99.90;;;;;;2603348;54;20080;31
2022/01/12 12:00:21;;;;;;;49.63;26.15;;;-0.20;99.90;;;;;;2603501;54;20109;31
2022/01/12 12:03:06;;;;;;;49.00;24.93;;;0.00;99.90;;;;;;2603555;54;20038;31
2022/01/12 12:05:51;;;;;;;55.27;24.50;;;-0.10;99.90;;;;;;2620440;46;20069;31
2022/01/12 12:14:55;;;;;;;48.67;23.73;;;0.00;99.90;;;;;;2603339;54;20250;31
2022/01/12 12:17:32;;;;;;;50.90;24.73;;;0.00;99.90;;;;;;2603259;54;20930;31
2022/01/12 12:23:28;;;;;;;34.15;19.05;;;0.00;99.90;;;;;;2605472;46;20027;31
2022/01/12 12:35:05;;;;;;;38.28;20.20;;;-0.10;99.90;;;;;;2621238;46;20030;31
2022/01/12 12:46:54;;;;;;;43.20;21.73;;;0.00;99.90;;;;;;2603339;54;20932;31
2022/01/12 12:56:07;;;;;;;47.65;24.70;;;0.10;99.90;;;;;;2603263;54;20936;31
2022/01/12 12:58:51;;;;;;;46.50;24.90;;;0.20;99.90;;;;;;2603065;54;20088;31
2022/01/12 13:01:30;;;;;;;44.53;23.00;;;0.30;99.90;;;;;;2603523;54;20033;31
2022/01/12 13:04:11;;;;;;;44.80;23.80;;;0.30;99.90;;;;;;2621584;46;20033;31
2022/01/12 13:06:56;;;;;;;48.13;23.90;;;0.30;99.90;;;;;;2603309;54;20104;31
2022/01/12 13:09:40;;;;;;;42.40;23.40;;;0.30;99.90;;;;;;2603342;54;20027;31
2022/01/12 13:15:47;;;;;;;43.90;22.55;;;0.40;99.90;;;;;;2603275;54;20884;31
2022/01/12 13:19:03;;;;;;;48.60;23.23;;;0.40;99.90;;;;;;2603334;54;20787;31
2022/01/12 13:21:59;;;;;;;38.97;22.05;;;0.50;99.90;;;;;;2603023;54;20072;31
2022/01/12 13:24:43;;;;;;;42.58;21.52;;;0.50;99.90;;;;;;2603280;54;20054;31
2022/01/12 13:27:30;;;;;;;41.60;22.53;;;0.60;99.90;;;;;;2603316;54;20880;31
2022/01/12 13:30:09;;;;;;;42.05;22.70;;;0.60;99.90;;;;;;2603357;54;20387;31
2022/01/12 13:32:52;;;;;;;40.78;22.02;;;0.60;99.90;;;;;;2603124;54;20912;31
2022/01/12 13:35:45;;;;;;;43.67;21.92;;;0.60;99.90;;;;;;2602969;54;20026;31
2022/01/12 13:38:33;;;;;;;38.75;20.88;;;0.70;99.90;;;;;;2701833;39;20478;31
2022/01/12 13:41:13;;;;;;;34.90;22.08;;;0.70;99.90;;;;;;2621902;46;20031;31
2022/01/12 13:59:54;;;;;;;40.72;21.92;;;0.70;99.90;;;;;;2602693;54;20791;31
2022/01/12 14:06:26;;;;;;;41.17;21.13;;;0.80;99.90;;;;;;2607296;47;20848;31
2022/01/12 14:09:22;;;;;;;46.80;24.00;;;0.80;99.90;;;;;;2602986;54;19956;31
2022/01/12 14:12:05;;;;;;;39.23;22.90;;;0.80;99.90;;;;;;2602995;54;20620;31
2022/01/12 14:18:30;;;;;;;38.97;21.87;;;0.80;99.90;;;;;;2621412;47;20875;31
2022/01/12 14:21:26;;;;;;;41.15;22.10;;;0.80;99.90;;;;;;2602992;54;20247;31
2022/01/12 14:24:02;;;;;;;41.22;22.15;;;0.80;99.90;;;;;;2602933;54;20030;31
2022/01/12 14:26:40;;;;;;;44.85;23.95;;;0.90;99.90;;;;;;2603129;54;20038;31
2022/01/12 14:29:28;;;;;;;34.95;20.42;;;0.80;99.90;;;;;;2603114;54;20077;31
2022/01/12 14:32:14;;;;;;;39.15;22.73;;;0.80;99.90;;;;;;2602935;54;20756;31
2022/01/12 14:35:14;;;;;;;42.97;23.48;;;0.80;99.90;;;;;;2603605;54;20081;31
2022/01/12 14:37:51;;;;;;;39.47;23.38;;;0.90;99.90;;;;;;2603763;54;20110;31
2022/01/12 14:40:28;;;;;;;41.85;23.98;;;0.80;99.90;;;;;;2604000;54;20027;31
2022/01/12 14:43:19;;;;;;;43.10;21.80;;;0.80;99.90;;;;;;2603838;54;20030;31
2022/01/12 14:45:59;;;;;;;39.87;21.53;;;0.90;99.90;;;;;;2603738;54;20754;31
2022/01/12 14:48:54;;;;;;;46.00;24.60;;;0.90;99.90;;;;;;2603431;54;20755;31
2022/01/12 14:51:38;;;;;;;38.33;20.67;;;0.90;99.90;;;;;;2702356;39;20469;31
2022/01/12 14:57:40;;;;;;;44.65;23.45;;;0.90;99.90;;;;;;2603581;54;20802;31
2022/01/12 15:00:34;;;;;;;37.90;21.33;;;0.90;99.90;;;;;;2603678;54;20890;31
2022/01/12 15:03:14;;;;;;;40.80;23.90;;;0.90;99.90;;;;;;2621801;46;21124;31
2022/01/12 15:05:50;;;;;;;44.28;23.77;;;0.90;99.90;;;;;;2603632;54;20901;31
2022/01/12 15:11:26;;;;;;;41.95;23.25;;;0.80;99.90;;;;;;2603538;54;20085;31
2022/01/12 15:14:20;;;;;;;47.63;26.95;;;0.90;99.90;;;;;;2603840;54;20050;31
2022/01/12 15:16:57;;;;;;;;;;;0.80;99.90;;;;;;2604028;54;20023;31
2022/01/12 15:19:34;;;;;;;51.13;24.97;;;0.80;99.90;;;;;;2603602;54;20806;31
2022/01/12 15:22:08;;;;;;;51.00;28.77;;;0.80;99.90;;;;;;2603652;54;21091;31
2022/01/12 15:25:01;;;;;;;53.13;28.65;;;0.70;99.90;;;;;;2621941;46;20057;31
2022/01/12 15:27:37;;;;;;;62.95;29.60;;;0.70;99.90;;;;;;2603788;54;20027;31
2022/01/12 15:35:49;;;;;;;50.60;27.70;;;0.70;99.90;;;;;;2603567;54;20023;31
2022/01/12 15:38:32;;;;;;;72.22;33.20;;;0.70;99.90;;;;;;2603552;54;20894;31
2022/01/12 15:41:22;;;;;;;69.25;31.95;;;0.60;99.90;;;;;;2603768;54;19942;31
2022/01/12 15:43:58;;;;;;;58.45;31.80;;;0.50;99.90;;;;;;2603359;54;20104;31
2022/01/12 15:46:33;;;;;;;;;;;0.60;99.90;;;;;;2701724;39;21124;31
2022/01/12 15:49:09;;;;;;;51.58;25.67;;;0.50;99.90;;;;;;2622057;46;19934;31
2022/01/12 15:51:46;;;;;;;52.88;29.00;;;0.40;99.90;;;;;;2616389;46;20863;31
2022/01/12 15:54:21;;;;;;;56.30;31.65;;;0.40;99.90;;;;;;2617621;46;20045;31
2022/01/12 15:57:03;;;;;;;62.33;31.75;;;0.30;99.90;;;;;;2603451;54;20031;31
2022/01/12 15:59:43;;;;;;;54.47;30.65;;;0.30;99.90;;;;;;2603761;54;20046;31
2022/01/12 16:02:20;;;;;;;61.00;32.33;;;0.30;99.90;;;;;;2603564;54;20038;31
2022/01/12 16:05:01;;;;;;;47.83;27.63;;;0.30;99.90;;;;;;2603135;54;20102;31
2022/01/12 16:07:38;;;;;;;49.05;24.65;;;0.30;99.90;;;;;;2603356;54;20053;31
2022/01/12 16:10:25;;;;;;;46.53;25.88;;;0.30;99.90;;;;;;2603444;54;20030;31
2022/01/12 16:13:07;;;;;;;58.28;30.17;;;0.30;99.90;;;;;;2603165;54;20093;31
2022/01/12 16:16:03;;;;;;;55.28;30.58;;;0.30;99.90;;;;;;2603517;54;20852;31
2022/01/12 16:18:39;;;;;;;58.97;30.33;;;0.30;99.90;;;;;;2701790;39;20470;31
2022/01/12 16:21:17;;;;;;;61.13;30.85;;;0.30;99.90;;;;;;2603460;54;20948;31
2022/01/12 16:23:57;;;;;;;55.03;30.30;;;0.30;99.90;;;;;;2622074;46;20023;31
2022/01/12 16:26:42;;;;;;;;;;;0.40;99.90;;;;;;2603519;54;20780;31
2022/01/12 16:29:20;;;;;;;54.58;27.95;;;0.40;99.90;;;;;;2603451;54;20799;31
2022/01/12 16:31:57;;;;;;;62.65;29.83;;;0.40;99.90;;;;;;2621849;46;20018;31
2022/01/12 16:34:55;;;;;;;53.85;26.35;;;0.40;99.90;;;;;;2604460;46;20759;31
2022/01/12 16:37:29;;;;;;;45.77;23.63;;;0.50;99.90;;;;;;2603575;54;20036;31
2022/01/12 16:40:07;;;;;;;59.83;28.73;;;0.40;99.90;;;;;;2603589;54;20875;31
2022/01/12 16:42:46;;;;;;;57.53;29.30;;;0.40;99.90;;;;;;2702031;39;20826;31
2022/01/12 16:47:59;;;;;;;59.83;30.00;;;0.40;99.90;;;;;;2603254;54;20100;31
2022/01/12 16:50:34;;;;;;;73.00;36.60;;;0.40;99.90;;;;;;2603583;54;20022;31
2022/01/12 16:53:08;;;;;;;57.13;30.23;;;0.40;99.90;;;;;;2603591;54;20034;31
2022/01/12 16:55:46;;;;;;;61.35;31.30;;;0.40;99.90;;;;;;2603238;54;21124;31
2022/01/12 16:58:23;;;;;;;60.10;32.30;;;0.40;99.90;;;;;;2602590;54;20902;31
2022/01/12 17:10:44;;;;;;;59.88;31.15;;;0.50;99.90;;;;;;2603384;54;20878;31
2022/01/12 17:13:34;;;;;;;62.28;33.03;;;0.50;99.90;;;;;;2603437;54;20053;31
2022/01/12 17:17:10;;;;;;;;;;;;;;;;;;;;;
2022/01/12 17:20:00;;;;;;;46.25;26.85;;;0.50;99.90;;;;;;2603267;54;20947;31